sensor_id;sensor_type;location;lat;lon;timestamp;P1;durP1;ratioP1;P2;durP2;ratioP2
65706;SDS011;52423;43.512;5.220;2023-02-03T00:00:36;10.10;;;3.20;;
65706;SDS011;52423;43.512;5.220;2023-02-03T00:03:01;4.70;;;2.45;;
65706;SDS011;52423;43.512;5.220;2023-02-03T00:05:26;7.40;;;2.47;;
65706;SDS011;52423;43.512;5.220;2023-02-03T00:07:53;7.93;;;3.25;;
65706;SDS011;52423;43.512;5.220;2023-02-03T00:10:18;8.13;;;2.53;;
65706;SDS011;52423;43.512;5.220;2023-02-03T00:12:47;5.07;;;2.50;;
65706;SDS011;52423;43.512;5.220;2023-02-03T00:15:13;5.85;;;2.42;;
65706;SDS011;52423;43.512;5.220;2023-02-03T00:17:39;9.23;;;2.70;;
65706;SDS011;52423;43.512;5.220;2023-02-03T00:20:04;9.93;;;2.88;;
65706;SDS011;52423;43.512;5.220;2023-02-03T00:22:30;12.05;;;4.03;;
65706;SDS011;52423;43.512;5.220;2023-02-03T00:24:55;8.73;;;2.88;;
65706;SDS011;52423;43.512;5.220;2023-02-03T00:27:21;11.90;;;3.28;;
65706;SDS011;52423;43.512;5.220;2023-02-03T00:29:46;7.25;;;3.05;;
65706;SDS011;52423;43.512;5.220;2023-02-03T00:32:12;6.25;;;2.70;;
65706;SDS011;52423;43.512;5.220;2023-02-03T00:34:37;7.93;;;2.75;;
65706;SDS011;52423;43.512;5.220;2023-02-03T00:37:02;4.03;;;2.30;;
65706;SDS011;52423;43.512;5.220;2023-02-03T00:39:28;6.68;;;2.30;;
65706;SDS011;52423;43.512;5.220;2023-02-03T00:41:53;9.38;;;2.50;;
65706;SDS011;52423;43.512;5.220;2023-02-03T00:44:18;9.93;;;2.83;;
65706;SDS011;52423;43.512;5.220;2023-02-03T00:46:44;7.38;;;2.53;;
65706;SDS011;52423;43.512;5.220;2023-02-03T00:49:09;8.68;;;2.95;;
65706;SDS011;52423;43.512;5.220;2023-02-03T00:51:35;6.80;;;2.63;;
65706;SDS011;52423;43.512;5.220;2023-02-03T00:54:00;6.97;;;2.47;;
65706;SDS011;52423;43.512;5.220;2023-02-03T00:56:25;5.63;;;2.25;;
65706;SDS011;52423;43.512;5.220;2023-02-03T00:58:51;4.97;;;2.67;;
65706;SDS011;52423;43.512;5.220;2023-02-03T01:01:16;7.35;;;2.72;;
65706;SDS011;52423;43.512;5.220;2023-02-03T01:03:42;8.30;;;2.45;;
65706;SDS011;52423;43.512;5.220;2023-02-03T01:06:08;9.57;;;2.70;;
65706;SDS011;52423;43.512;5.220;2023-02-03T01:08:39;9.90;;;3.13;;
65706;SDS011;52423;43.512;5.220;2023-02-03T01:11:08;6.25;;;2.80;;
65706;SDS011;52423;43.512;5.220;2023-02-03T01:13:35;5.50;;;2.92;;
65706;SDS011;52423;43.512;5.220;2023-02-03T01:16:01;5.40;;;2.83;;
65706;SDS011;52423;43.512;5.220;2023-02-03T01:18:27;5.78;;;3.33;;
65706;SDS011;52423;43.512;5.220;2023-02-03T01:20:53;19.30;;;3.60;;
65706;SDS011;52423;43.512;5.220;2023-02-03T01:23:18;7.88;;;3.15;;
65706;SDS011;52423;43.512;5.220;2023-02-03T01:25:43;6.60;;;3.35;;
65706;SDS011;52423;43.512;5.220;2023-02-03T01:28:09;9.38;;;3.67;;
65706;SDS011;52423;43.512;5.220;2023-02-03T01:30:34;12.43;;;3.25;;
65706;SDS011;52423;43.512;5.220;2023-02-03T01:33:00;6.22;;;2.88;;
65706;SDS011;52423;43.512;5.220;2023-02-03T01:35:25;5.57;;;2.50;;
65706;SDS011;52423;43.512;5.220;2023-02-03T01:37:50;6.90;;;2.67;;
65706;SDS011;52423;43.512;5.220;2023-02-03T01:40:16;8.57;;;2.70;;
65706;SDS011;52423;43.512;5.220;2023-02-03T01:42:42;6.15;;;2.50;;
65706;SDS011;52423;43.512;5.220;2023-02-03T01:45:08;11.70;;;3.60;;
65706;SDS011;52423;43.512;5.220;2023-02-03T01:47:54;5.82;;;2.58;;
65706;SDS011;52423;43.512;5.220;2023-02-03T01:50:29;7.25;;;2.33;;
65706;SDS011;52423;43.512;5.220;2023-02-03T01:53:02;5.38;;;2.38;;
65706;SDS011;52423;43.512;5.220;2023-02-03T01:55:34;6.80;;;2.20;;
65706;SDS011;52423;43.512;5.220;2023-02-03T01:58:04;9.93;;;2.65;;
65706;SDS011;52423;43.512;5.220;2023-02-03T02:00:35;6.50;;;2.40;;
65706;SDS011;52423;43.512;5.220;2023-02-03T02:03:01;7.47;;;2.25;;
65706;SDS011;52423;43.512;5.220;2023-02-03T02:07:53;5.45;;;2.03;;
65706;SDS011;52423;43.512;5.220;2023-02-03T02:10:21;4.07;;;1.85;;
65706;SDS011;52423;43.512;5.220;2023-02-03T02:12:46;6.45;;;1.98;;
65706;SDS011;52423;43.512;5.220;2023-02-03T02:15:12;5.65;;;2.28;;
65706;SDS011;52423;43.512;5.220;2023-02-03T02:22:59;9.95;;;2.67;;
65706;SDS011;52423;43.512;5.220;2023-02-03T02:39:58;9.02;;;3.67;;
65706;SDS011;52423;43.512;5.220;2023-02-03T02:42:50;6.95;;;2.90;;
65706;SDS011;52423;43.512;5.220;2023-02-03T02:45:47;6.00;;;2.83;;
65706;SDS011;52423;43.512;5.220;2023-02-03T02:49:19;10.00;;;2.97;;
65706;SDS011;52423;43.512;5.220;2023-02-03T02:51:30;6.00;;;3.08;;
65706;SDS011;52423;43.512;5.220;2023-02-03T02:54:01;4.05;;;2.90;;
65706;SDS011;52423;43.512;5.220;2023-02-03T02:56:30;7.80;;;2.88;;
65706;SDS011;52423;43.512;5.220;2023-02-03T02:58:58;8.60;;;3.30;;
65706;SDS011;52423;43.512;5.220;2023-02-03T03:01:25;5.03;;;3.10;;
65706;SDS011;52423;43.512;5.220;2023-02-03T03:03:51;6.95;;;3.15;;
65706;SDS011;52423;43.512;5.220;2023-02-03T03:11:25;5.13;;;2.95;;
65706;SDS011;52423;43.512;5.220;2023-02-03T03:13:55;6.65;;;3.00;;
65706;SDS011;52423;43.512;5.220;2023-02-03T03:16:28;4.90;;;2.70;;
65706;SDS011;52423;43.512;5.220;2023-02-03T03:18:55;8.18;;;3.20;;
65706;SDS011;52423;43.512;5.220;2023-02-03T03:21:28;5.13;;;3.38;;
65706;SDS011;52423;43.512;5.220;2023-02-03T03:24:00;7.47;;;3.40;;
65706;SDS011;52423;43.512;5.220;2023-02-03T03:26:31;7.00;;;3.00;;
65706;SDS011;52423;43.512;5.220;2023-02-03T03:29:19;8.85;;;2.72;;
65706;SDS011;52423;43.512;5.220;2023-02-03T03:31:47;6.05;;;2.70;;
65706;SDS011;52423;43.512;5.220;2023-02-03T03:34:13;9.73;;;3.13;;
65706;SDS011;52423;43.512;5.220;2023-02-03T03:36:46;10.95;;;3.13;;
65706;SDS011;52423;43.512;5.220;2023-02-03T03:39:23;7.43;;;2.72;;
65706;SDS011;52423;43.512;5.220;2023-02-03T03:42:07;8.13;;;2.80;;
65706;SDS011;52423;43.512;5.220;2023-02-03T03:44:42;6.88;;;2.88;;
65706;SDS011;52423;43.512;5.220;2023-02-03T03:47:26;4.00;;;2.47;;
65706;SDS011;52423;43.512;5.220;2023-02-03T03:50:13;6.10;;;2.80;;
65706;SDS011;52423;43.512;5.220;2023-02-03T03:52:43;11.93;;;3.03;;
65706;SDS011;52423;43.512;5.220;2023-02-03T03:55:10;6.30;;;3.33;;
65706;SDS011;52423;43.512;5.220;2023-02-03T03:57:40;7.90;;;3.80;;
65706;SDS011;52423;43.512;5.220;2023-02-03T04:00:43;7.60;;;3.25;;
65706;SDS011;52423;43.512;5.220;2023-02-03T04:03:13;6.55;;;3.47;;
65706;SDS011;52423;43.512;5.220;2023-02-03T04:05:41;5.43;;;3.25;;
65706;SDS011;52423;43.512;5.220;2023-02-03T04:08:07;11.27;;;3.58;;
65706;SDS011;52423;43.512;5.220;2023-02-03T04:10:33;6.50;;;3.28;;
65706;SDS011;52423;43.512;5.220;2023-02-03T04:13:03;9.95;;;3.70;;
65706;SDS011;52423;43.512;5.220;2023-02-03T04:15:30;9.10;;;2.85;;
65706;SDS011;52423;43.512;5.220;2023-02-03T04:17:56;8.07;;;3.10;;
65706;SDS011;52423;43.512;5.220;2023-02-03T04:20:24;10.95;;;3.10;;
65706;SDS011;52423;43.512;5.220;2023-02-03T04:22:49;6.47;;;3.42;;
65706;SDS011;52423;43.512;5.220;2023-02-03T04:25:15;8.75;;;3.00;;
65706;SDS011;52423;43.512;5.220;2023-02-03T04:27:41;5.00;;;2.70;;
65706;SDS011;52423;43.512;5.220;2023-02-03T04:30:06;6.45;;;2.80;;
65706;SDS011;52423;43.512;5.220;2023-02-03T04:32:33;6.15;;;2.88;;
65706;SDS011;52423;43.512;5.220;2023-02-03T04:34:59;5.65;;;2.78;;
65706;SDS011;52423;43.512;5.220;2023-02-03T04:37:25;6.82;;;2.58;;
65706;SDS011;52423;43.512;5.220;2023-02-03T04:39:54;4.05;;;2.65;;
65706;SDS011;52423;43.512;5.220;2023-02-03T04:42:20;6.80;;;2.42;;
65706;SDS011;52423;43.512;5.220;2023-02-03T04:44:46;6.90;;;2.60;;
65706;SDS011;52423;43.512;5.220;2023-02-03T04:47:11;5.88;;;2.53;;
65706;SDS011;52423;43.512;5.220;2023-02-03T04:49:37;6.80;;;2.33;;
65706;SDS011;52423;43.512;5.220;2023-02-03T04:52:02;3.42;;;1.92;;
65706;SDS011;52423;43.512;5.220;2023-02-03T04:54:28;8.93;;;2.47;;
65706;SDS011;52423;43.512;5.220;2023-02-03T04:56:53;4.45;;;2.55;;
65706;SDS011;52423;43.512;5.220;2023-02-03T04:59:19;4.45;;;2.28;;
65706;SDS011;52423;43.512;5.220;2023-02-03T05:01:44;7.55;;;2.60;;
65706;SDS011;52423;43.512;5.220;2023-02-03T05:04:10;7.30;;;2.30;;
65706;SDS011;52423;43.512;5.220;2023-02-03T05:06:35;6.93;;;2.67;;
65706;SDS011;52423;43.512;5.220;2023-02-03T05:09:00;3.90;;;2.45;;
65706;SDS011;52423;43.512;5.220;2023-02-03T05:11:26;7.47;;;2.78;;
65706;SDS011;52423;43.512;5.220;2023-02-03T05:13:52;5.28;;;3.10;;
65706;SDS011;52423;43.512;5.220;2023-02-03T05:16:18;9.73;;;3.45;;
65706;SDS011;52423;43.512;5.220;2023-02-03T05:18:43;7.55;;;3.05;;
65706;SDS011;52423;43.512;5.220;2023-02-03T05:21:09;8.32;;;4.35;;
65706;SDS011;52423;43.512;5.220;2023-02-03T05:23:34;9.52;;;3.00;;
65706;SDS011;52423;43.512;5.220;2023-02-03T05:25:59;9.25;;;3.63;;
65706;SDS011;52423;43.512;5.220;2023-02-03T05:28:25;12.90;;;3.40;;
65706;SDS011;52423;43.512;5.220;2023-02-03T05:30:50;8.68;;;2.83;;
65706;SDS011;52423;43.512;5.220;2023-02-03T05:33:16;8.48;;;3.22;;
65706;SDS011;52423;43.512;5.220;2023-02-03T05:35:41;5.88;;;3.50;;
65706;SDS011;52423;43.512;5.220;2023-02-03T05:38:07;4.22;;;3.00;;
65706;SDS011;52423;43.512;5.220;2023-02-03T05:40:32;8.00;;;3.35;;
65706;SDS011;52423;43.512;5.220;2023-02-03T05:43:16;7.78;;;3.20;;
65706;SDS011;52423;43.512;5.220;2023-02-03T05:45:43;6.13;;;3.35;;
65706;SDS011;52423;43.512;5.220;2023-02-03T05:48:08;6.20;;;3.40;;
65706;SDS011;52423;43.512;5.220;2023-02-03T05:50:34;5.40;;;3.42;;
65706;SDS011;52423;43.512;5.220;2023-02-03T05:53:01;6.20;;;3.15;;
65706;SDS011;52423;43.512;5.220;2023-02-03T05:55:28;6.95;;;3.20;;
65706;SDS011;52423;43.512;5.220;2023-02-03T05:57:54;7.82;;;2.70;;
65706;SDS011;52423;43.512;5.220;2023-02-03T06:00:20;5.20;;;2.30;;
65706;SDS011;52423;43.512;5.220;2023-02-03T06:02:56;5.03;;;2.55;;
65706;SDS011;52423;43.512;5.220;2023-02-03T06:05:24;6.55;;;2.47;;
65706;SDS011;52423;43.512;5.220;2023-02-03T06:07:50;4.35;;;2.30;;
65706;SDS011;52423;43.512;5.220;2023-02-03T06:10:15;6.70;;;2.60;;
65706;SDS011;52423;43.512;5.220;2023-02-03T06:12:41;7.00;;;2.60;;
65706;SDS011;52423;43.512;5.220;2023-02-03T06:15:07;5.05;;;2.58;;
65706;SDS011;52423;43.512;5.220;2023-02-03T06:17:33;5.57;;;2.55;;
65706;SDS011;52423;43.512;5.220;2023-02-03T06:20:00;8.45;;;3.00;;
65706;SDS011;52423;43.512;5.220;2023-02-03T06:22:28;4.50;;;2.65;;
65706;SDS011;52423;43.512;5.220;2023-02-03T06:24:53;12.88;;;3.05;;
65706;SDS011;52423;43.512;5.220;2023-02-03T06:27:19;9.63;;;3.20;;
65706;SDS011;52423;43.512;5.220;2023-02-03T06:29:44;7.88;;;3.25;;
65706;SDS011;52423;43.512;5.220;2023-02-03T06:32:10;5.65;;;2.88;;
65706;SDS011;52423;43.512;5.220;2023-02-03T06:34:35;9.30;;;3.08;;
65706;SDS011;52423;43.512;5.220;2023-02-03T06:37:00;7.20;;;3.03;;
65706;SDS011;52423;43.512;5.220;2023-02-03T06:39:26;6.10;;;3.42;;
65706;SDS011;52423;43.512;5.220;2023-02-03T06:41:51;6.32;;;3.08;;
65706;SDS011;52423;43.512;5.220;2023-02-03T06:44:17;11.57;;;3.90;;
65706;SDS011;52423;43.512;5.220;2023-02-03T06:46:43;6.70;;;3.90;;
65706;SDS011;52423;43.512;5.220;2023-02-03T06:49:08;6.68;;;3.70;;
65706;SDS011;52423;43.512;5.220;2023-02-03T06:51:34;10.60;;;4.65;;
65706;SDS011;52423;43.512;5.220;2023-02-03T06:54:00;11.93;;;5.80;;
65706;SDS011;52423;43.512;5.220;2023-02-03T06:56:27;12.25;;;5.90;;
65706;SDS011;52423;43.512;5.220;2023-02-03T06:58:52;9.15;;;5.25;;
65706;SDS011;52423;43.512;5.220;2023-02-03T07:01:18;9.93;;;5.00;;
65706;SDS011;52423;43.512;5.220;2023-02-03T07:03:43;14.75;;;5.15;;
65706;SDS011;52423;43.512;5.220;2023-02-03T07:06:08;12.52;;;6.63;;
65706;SDS011;52423;43.512;5.220;2023-02-03T07:08:34;15.93;;;6.97;;
65706;SDS011;52423;43.512;5.220;2023-02-03T07:10:59;13.40;;;6.70;;
65706;SDS011;52423;43.512;5.220;2023-02-03T07:13:25;10.85;;;5.30;;
65706;SDS011;52423;43.512;5.220;2023-02-03T07:15:50;9.60;;;5.57;;
65706;SDS011;52423;43.512;5.220;2023-02-03T07:18:15;15.32;;;5.57;;
65706;SDS011;52423;43.512;5.220;2023-02-03T07:20:43;15.27;;;6.15;;
65706;SDS011;52423;43.512;5.220;2023-02-03T07:23:08;12.05;;;5.47;;
65706;SDS011;52423;43.512;5.220;2023-02-03T07:25:33;15.07;;;5.97;;
65706;SDS011;52423;43.512;5.220;2023-02-03T07:27:59;6.65;;;4.60;;
65706;SDS011;52423;43.512;5.220;2023-02-03T07:30:24;9.88;;;4.82;;
65706;SDS011;52423;43.512;5.220;2023-02-03T07:32:50;11.13;;;5.25;;
65706;SDS011;52423;43.512;5.220;2023-02-03T07:35:17;11.48;;;5.53;;
65706;SDS011;52423;43.512;5.220;2023-02-03T07:37:42;16.88;;;5.72;;
65706;SDS011;52423;43.512;5.220;2023-02-03T07:40:08;17.50;;;5.38;;
65706;SDS011;52423;43.512;5.220;2023-02-03T07:42:37;9.10;;;4.68;;
65706;SDS011;52423;43.512;5.220;2023-02-03T07:45:05;10.15;;;5.22;;
65706;SDS011;52423;43.512;5.220;2023-02-03T07:47:31;9.07;;;4.78;;
65706;SDS011;52423;43.512;5.220;2023-02-03T07:49:56;10.63;;;4.97;;
65706;SDS011;52423;43.512;5.220;2023-02-03T07:52:22;11.63;;;4.55;;
65706;SDS011;52423;43.512;5.220;2023-02-03T07:54:47;10.88;;;4.68;;
65706;SDS011;52423;43.512;5.220;2023-02-03T07:57:13;13.82;;;4.18;;
65706;SDS011;52423;43.512;5.220;2023-02-03T07:59:38;7.55;;;3.72;;
65706;SDS011;52423;43.512;5.220;2023-02-03T08:02:03;10.48;;;4.55;;
65706;SDS011;52423;43.512;5.220;2023-02-03T08:04:29;6.38;;;3.70;;
65706;SDS011;52423;43.512;5.220;2023-02-03T08:06:55;16.20;;;6.53;;
65706;SDS011;52423;43.512;5.220;2023-02-03T08:09:20;12.70;;;6.07;;
65706;SDS011;52423;43.512;5.220;2023-02-03T08:11:46;13.65;;;6.20;;
65706;SDS011;52423;43.512;5.220;2023-02-03T08:14:12;14.32;;;6.35;;
65706;SDS011;52423;43.512;5.220;2023-02-03T08:16:38;8.68;;;3.80;;
65706;SDS011;52423;43.512;5.220;2023-02-03T08:19:03;5.65;;;3.10;;
65706;SDS011;52423;43.512;5.220;2023-02-03T08:21:29;8.25;;;2.75;;
65706;SDS011;52423;43.512;5.220;2023-02-03T08:23:55;8.15;;;3.40;;
65706;SDS011;52423;43.512;5.220;2023-02-03T08:26:20;9.35;;;3.55;;
65706;SDS011;52423;43.512;5.220;2023-02-03T08:28:49;6.68;;;3.17;;
65706;SDS011;52423;43.512;5.220;2023-02-03T08:31:15;7.90;;;2.97;;
65706;SDS011;52423;43.512;5.220;2023-02-03T08:33:40;7.68;;;3.55;;
65706;SDS011;52423;43.512;5.220;2023-02-03T08:36:06;6.20;;;2.90;;
65706;SDS011;52423;43.512;5.220;2023-02-03T08:38:31;5.93;;;3.10;;
65706;SDS011;52423;43.512;5.220;2023-02-03T08:40:57;5.75;;;2.63;;
65706;SDS011;52423;43.512;5.220;2023-02-03T08:43:22;5.28;;;3.00;;
65706;SDS011;52423;43.512;5.220;2023-02-03T08:45:47;5.80;;;2.65;;
65706;SDS011;52423;43.512;5.220;2023-02-03T08:48:13;7.55;;;2.33;;
65706;SDS011;52423;43.512;5.220;2023-02-03T08:50:42;7.90;;;2.78;;
65706;SDS011;52423;43.512;5.220;2023-02-03T08:53:09;8.23;;;2.47;;
65706;SDS011;52423;43.512;5.220;2023-02-03T08:55:37;6.80;;;2.33;;
65706;SDS011;52423;43.512;5.220;2023-02-03T08:58:04;8.60;;;2.58;;
65706;SDS011;52423;43.512;5.220;2023-02-03T09:00:29;5.05;;;3.30;;
65706;SDS011;52423;43.512;5.220;2023-02-03T09:02:55;5.10;;;2.72;;
65706;SDS011;52423;43.512;5.220;2023-02-03T09:05:20;5.68;;;2.60;;
65706;SDS011;52423;43.512;5.220;2023-02-03T09:07:46;6.18;;;2.60;;
65706;SDS011;52423;43.512;5.220;2023-02-03T09:10:11;13.85;;;2.53;;
65706;SDS011;52423;43.512;5.220;2023-02-03T09:12:37;7.57;;;2.50;;
65706;SDS011;52423;43.512;5.220;2023-02-03T09:15:02;10.32;;;2.95;;
65706;SDS011;52423;43.512;5.220;2023-02-03T09:17:29;8.10;;;2.58;;
65706;SDS011;52423;43.512;5.220;2023-02-03T09:19:55;5.88;;;2.60;;
65706;SDS011;52423;43.512;5.220;2023-02-03T09:22:20;9.00;;;2.80;;
65706;SDS011;52423;43.512;5.220;2023-02-03T09:24:45;5.93;;;2.25;;
65706;SDS011;52423;43.512;5.220;2023-02-03T09:27:14;4.53;;;2.20;;
65706;SDS011;52423;43.512;5.220;2023-02-03T09:29:39;5.82;;;2.50;;
65706;SDS011;52423;43.512;5.220;2023-02-03T09:32:05;3.72;;;2.40;;
65706;SDS011;52423;43.512;5.220;2023-02-03T09:34:32;6.93;;;2.85;;
65706;SDS011;52423;43.512;5.220;2023-02-03T09:36:58;4.65;;;2.50;;
65706;SDS011;52423;43.512;5.220;2023-02-03T09:39:23;6.88;;;2.70;;
65706;SDS011;52423;43.512;5.220;2023-02-03T09:47:44;4.83;;;3.00;;
65706;SDS011;52423;43.512;5.220;2023-02-03T09:50:11;8.10;;;3.22;;
65706;SDS011;52423;43.512;5.220;2023-02-03T09:52:40;10.23;;;3.20;;
65706;SDS011;52423;43.512;5.220;2023-02-03T09:55:50;5.43;;;2.88;;
65706;SDS011;52423;43.512;5.220;2023-02-03T09:58:16;8.77;;;3.90;;
65706;SDS011;52423;43.512;5.220;2023-02-03T10:06:15;5.20;;;3.05;;
65706;SDS011;52423;43.512;5.220;2023-02-03T10:09:08;5.25;;;3.00;;
65706;SDS011;52423;43.512;5.220;2023-02-03T10:17:32;8.80;;;2.83;;
65706;SDS011;52423;43.512;5.220;2023-02-03T10:22:33;7.35;;;2.90;;
65706;SDS011;52423;43.512;5.220;2023-02-03T10:27:41;7.15;;;2.83;;
65706;SDS011;52423;43.512;5.220;2023-02-03T10:30:24;8.82;;;2.60;;
65706;SDS011;52423;43.512;5.220;2023-02-03T10:33:08;5.15;;;2.78;;
65706;SDS011;52423;43.512;5.220;2023-02-03T10:41:23;4.35;;;2.53;;
65706;SDS011;52423;43.512;5.220;2023-02-03T10:43:50;5.93;;;2.50;;
65706;SDS011;52423;43.512;5.220;2023-02-03T10:46:18;6.25;;;2.67;;
65706;SDS011;52423;43.512;5.220;2023-02-03T10:48:46;5.05;;;2.22;;
65706;SDS011;52423;43.512;5.220;2023-02-03T10:51:23;16.08;;;3.35;;
65706;SDS011;52423;43.512;5.220;2023-02-03T10:53:51;6.32;;;2.50;;
65706;SDS011;52423;43.512;5.220;2023-02-03T10:56:19;4.30;;;2.50;;
65706;SDS011;52423;43.512;5.220;2023-02-03T10:58:52;3.67;;;2.08;;
65706;SDS011;52423;43.512;5.220;2023-02-03T11:01:20;3.80;;;2.33;;
65706;SDS011;52423;43.512;5.220;2023-02-03T11:03:56;4.13;;;2.33;;
65706;SDS011;52423;43.512;5.220;2023-02-03T11:06:23;7.35;;;2.70;;
65706;SDS011;52423;43.512;5.220;2023-02-03T11:08:49;6.90;;;4.28;;
65706;SDS011;52423;43.512;5.220;2023-02-03T11:11:26;4.93;;;3.05;;
65706;SDS011;52423;43.512;5.220;2023-02-03T11:16:32;5.35;;;2.20;;
65706;SDS011;52423;43.512;5.220;2023-02-03T11:19:00;3.30;;;2.30;;
65706;SDS011;52423;43.512;5.220;2023-02-03T11:26:34;6.53;;;2.35;;
65706;SDS011;52423;43.512;5.220;2023-02-03T11:29:06;3.60;;;1.90;;
65706;SDS011;52423;43.512;5.220;2023-02-03T11:31:41;8.23;;;2.15;;
65706;SDS011;52423;43.512;5.220;2023-02-03T11:34:15;3.53;;;1.92;;
65706;SDS011;52423;43.512;5.220;2023-02-03T11:36:48;5.10;;;2.17;;
65706;SDS011;52423;43.512;5.220;2023-02-03T11:42:15;7.95;;;1.83;;
65706;SDS011;52423;43.512;5.220;2023-02-03T11:44:46;3.22;;;2.05;;
65706;SDS011;52423;43.512;5.220;2023-02-03T11:47:12;5.60;;;2.05;;
65706;SDS011;52423;43.512;5.220;2023-02-03T11:49:59;3.30;;;2.05;;
65706;SDS011;52423;43.512;5.220;2023-02-03T11:58:52;5.78;;;3.05;;
65706;SDS011;52423;43.512;5.220;2023-02-03T12:04:51;7.55;;;2.40;;
65706;SDS011;52423;43.512;5.220;2023-02-03T12:10:20;3.78;;;2.40;;
65706;SDS011;52423;43.512;5.220;2023-02-03T12:29:05;2.85;;;2.00;;
65706;SDS011;52423;43.512;5.220;2023-02-03T12:31:43;2.30;;;1.73;;
65706;SDS011;52423;43.512;5.220;2023-02-03T12:39:47;4.78;;;2.33;;
65706;SDS011;52423;43.512;5.220;2023-02-03T12:42:22;2.78;;;1.42;;
65706;SDS011;52423;43.512;5.220;2023-02-03T12:47:37;3.42;;;1.65;;
65706;SDS011;52423;43.512;5.220;2023-02-03T12:50:28;3.80;;;1.88;;
65706;SDS011;52423;43.512;5.220;2023-02-03T12:53:15;5.50;;;1.95;;
65706;SDS011;52423;43.512;5.220;2023-02-03T12:55:46;3.00;;;1.77;;
65706;SDS011;52423;43.512;5.220;2023-02-03T12:58:23;4.47;;;2.08;;
65706;SDS011;52423;43.512;5.220;2023-02-03T13:00:53;4.93;;;2.35;;
65706;SDS011;52423;43.512;5.220;2023-02-03T13:06:31;3.28;;;1.55;;
65706;SDS011;52423;43.512;5.220;2023-02-03T13:20:50;5.22;;;1.60;;
65706;SDS011;52423;43.512;5.220;2023-02-03T13:23:17;5.85;;;2.17;;
65706;SDS011;52423;43.512;5.220;2023-02-03T13:39:31;5.15;;;2.40;;
65706;SDS011;52423;43.512;5.220;2023-02-03T13:44:35;3.13;;;1.83;;
65706;SDS011;52423;43.512;5.220;2023-02-03T13:47:03;4.82;;;2.13;;
65706;SDS011;52423;43.512;5.220;2023-02-03T13:49:30;2.85;;;1.70;;
65706;SDS011;52423;43.512;5.220;2023-02-03T13:51:59;8.18;;;2.10;;
65706;SDS011;52423;43.512;5.220;2023-02-03T13:56:59;5.00;;;2.08;;
65706;SDS011;52423;43.512;5.220;2023-02-03T13:59:27;14.80;;;2.60;;
65706;SDS011;52423;43.512;5.220;2023-02-03T14:07:28;10.27;;;2.85;;
65706;SDS011;52423;43.512;5.220;2023-02-03T14:15:20;7.03;;;1.95;;
65706;SDS011;52423;43.512;5.220;2023-02-03T14:22:56;6.05;;;2.03;;
65706;SDS011;52423;43.512;5.220;2023-02-03T14:25:37;5.30;;;1.70;;
65706;SDS011;52423;43.512;5.220;2023-02-03T14:28:07;3.45;;;1.73;;
65706;SDS011;52423;43.512;5.220;2023-02-03T14:36:33;8.10;;;1.90;;
65706;SDS011;52423;43.512;5.220;2023-02-03T14:41:47;5.07;;;1.75;;
65706;SDS011;52423;43.512;5.220;2023-02-03T14:47:15;9.70;;;2.92;;
65706;SDS011;52423;43.512;5.220;2023-02-03T14:52:35;3.38;;;2.03;;
65706;SDS011;52423;43.512;5.220;2023-02-03T14:55:30;4.05;;;2.15;;
65706;SDS011;52423;43.512;5.220;2023-02-03T14:58:05;5.60;;;1.95;;
65706;SDS011;52423;43.512;5.220;2023-02-03T15:00:38;3.47;;;2.00;;
65706;SDS011;52423;43.512;5.220;2023-02-03T15:05:39;2.72;;;2.30;;
65706;SDS011;52423;43.512;5.220;2023-02-03T15:10:56;5.22;;;2.17;;
65706;SDS011;52423;43.512;5.220;2023-02-03T15:13:30;3.53;;;1.70;;
65706;SDS011;52423;43.512;5.220;2023-02-03T15:15:56;3.03;;;1.70;;
65706;SDS011;52423;43.512;5.220;2023-02-03T15:18:27;5.40;;;2.97;;
65706;SDS011;52423;43.512;5.220;2023-02-03T15:21:01;6.93;;;2.08;;
65706;SDS011;52423;43.512;5.220;2023-02-03T15:23:28;6.65;;;2.25;;
65706;SDS011;52423;43.512;5.220;2023-02-03T15:26:10;4.55;;;2.40;;
65706;SDS011;52423;43.512;5.220;2023-02-03T15:28:37;3.53;;;1.85;;
65706;SDS011;52423;43.512;5.220;2023-02-03T15:31:04;6.35;;;1.73;;
65706;SDS011;52423;43.512;5.220;2023-02-03T15:33:40;5.15;;;2.92;;
65706;SDS011;52423;43.512;5.220;2023-02-03T15:36:11;3.97;;;1.88;;
65706;SDS011;52423;43.512;5.220;2023-02-03T15:38:45;6.43;;;2.30;;
65706;SDS011;52423;43.512;5.220;2023-02-03T15:41:21;17.00;;;2.60;;
65706;SDS011;52423;43.512;5.220;2023-02-03T15:43:48;6.10;;;3.45;;
65706;SDS011;52423;43.512;5.220;2023-02-03T15:46:37;6.07;;;3.50;;
65706;SDS011;52423;43.512;5.220;2023-02-03T15:49:15;5.00;;;2.50;;
65706;SDS011;52423;43.512;5.220;2023-02-03T15:51:51;5.60;;;2.40;;
65706;SDS011;52423;43.512;5.220;2023-02-03T15:54:27;8.02;;;2.25;;
65706;SDS011;52423;43.512;5.220;2023-02-03T15:56:58;8.45;;;2.40;;
65706;SDS011;52423;43.512;5.220;2023-02-03T16:02:00;8.82;;;2.38;;
65706;SDS011;52423;43.512;5.220;2023-02-03T16:04:41;3.83;;;2.75;;
65706;SDS011;52423;43.512;5.220;2023-02-03T16:07:11;5.75;;;2.28;;
65706;SDS011;52423;43.512;5.220;2023-02-03T16:09:42;6.57;;;2.17;;
65706;SDS011;52423;43.512;5.220;2023-02-03T16:12:15;8.45;;;1.95;;
65706;SDS011;52423;43.512;5.220;2023-02-03T16:14:42;6.20;;;2.17;;
65706;SDS011;52423;43.512;5.220;2023-02-03T16:17:19;10.25;;;2.00;;
65706;SDS011;52423;43.512;5.220;2023-02-03T16:19:46;5.03;;;2.38;;
65706;SDS011;52423;43.512;5.220;2023-02-03T16:22:30;3.70;;;2.40;;
65706;SDS011;52423;43.512;5.220;2023-02-03T16:27:54;3.85;;;1.90;;
65706;SDS011;52423;43.512;5.220;2023-02-03T16:33:47;2.90;;;2.05;;
65706;SDS011;52423;43.512;5.220;2023-02-03T16:36:33;6.35;;;1.98;;
65706;SDS011;52423;43.512;5.220;2023-02-03T16:39:21;3.13;;;1.92;;
65706;SDS011;52423;43.512;5.220;2023-02-03T16:42:07;5.65;;;1.70;;
65706;SDS011;52423;43.512;5.220;2023-02-03T16:45:15;5.82;;;2.10;;
65706;SDS011;52423;43.512;5.220;2023-02-03T16:48:01;3.72;;;2.42;;
65706;SDS011;52423;43.512;5.220;2023-02-03T16:50:46;6.55;;;2.20;;
65706;SDS011;52423;43.512;5.220;2023-02-03T16:53:24;7.07;;;2.28;;
65706;SDS011;52423;43.512;5.220;2023-02-03T16:55:52;3.80;;;2.70;;
65706;SDS011;52423;43.512;5.220;2023-02-03T16:58:19;7.20;;;2.47;;
65706;SDS011;52423;43.512;5.220;2023-02-03T17:00:45;10.15;;;3.03;;
65706;SDS011;52423;43.512;5.220;2023-02-03T17:03:13;3.97;;;2.42;;
65706;SDS011;52423;43.512;5.220;2023-02-03T17:05:41;4.82;;;2.80;;
65706;SDS011;52423;43.512;5.220;2023-02-03T17:08:08;5.63;;;4.28;;
65706;SDS011;52423;43.512;5.220;2023-02-03T17:10:37;5.88;;;2.78;;
65706;SDS011;52423;43.512;5.220;2023-02-03T17:13:05;8.32;;;3.13;;
65706;SDS011;52423;43.512;5.220;2023-02-03T17:15:32;6.18;;;2.47;;
65706;SDS011;52423;43.512;5.220;2023-02-03T17:17:57;8.73;;;6.72;;
65706;SDS011;52423;43.512;5.220;2023-02-03T17:20:23;20.00;;;8.65;;
65706;SDS011;52423;43.512;5.220;2023-02-03T17:22:48;16.85;;;10.77;;
65706;SDS011;52423;43.512;5.220;2023-02-03T17:25:17;8.80;;;4.50;;
65706;SDS011;52423;43.512;5.220;2023-02-03T17:27:42;12.35;;;4.05;;
65706;SDS011;52423;43.512;5.220;2023-02-03T17:30:08;9.30;;;4.68;;
65706;SDS011;52423;43.512;5.220;2023-02-03T17:32:34;5.25;;;3.63;;
65706;SDS011;52423;43.512;5.220;2023-02-03T17:34:59;7.13;;;5.03;;
65706;SDS011;52423;43.512;5.220;2023-02-03T17:37:25;7.57;;;4.13;;
65706;SDS011;52423;43.512;5.220;2023-02-03T17:39:50;4.18;;;3.10;;
65706;SDS011;52423;43.512;5.220;2023-02-03T17:42:15;5.10;;;3.65;;
65706;SDS011;52423;43.512;5.220;2023-02-03T17:44:41;23.00;;;15.75;;
65706;SDS011;52423;43.512;5.220;2023-02-03T17:47:06;14.18;;;6.10;;
65706;SDS011;52423;43.512;5.220;2023-02-03T17:49:32;15.05;;;5.30;;
65706;SDS011;52423;43.512;5.220;2023-02-03T17:51:58;8.20;;;3.00;;
65706;SDS011;52423;43.512;5.220;2023-02-03T17:54:23;10.57;;;4.65;;
65706;SDS011;52423;43.512;5.220;2023-02-03T17:56:49;9.30;;;3.85;;
65706;SDS011;52423;43.512;5.220;2023-02-03T17:59:14;5.70;;;2.72;;